sensor_id;sensor_type;location;lat;lon;timestamp;pressure;altitude;pressure_sealevel;temperature;humidity
11041;BME280;5573;49.592;8.662;2023-04-10T00:00:46;100473.22;;;5.39;100.00
11041;BME280;5573;49.592;8.662;2023-04-10T00:03:18;100469.47;;;5.23;100.00
11041;BME280;5573;49.592;8.662;2023-04-10T00:05:46;100469.88;;;5.34;100.00
11041;BME280;5573;49.592;8.662;2023-04-10T00:08:15;100477.31;;;5.24;100.00
11041;BME280;5573;49.592;8.662;2023-04-10T00:10:43;100485.22;;;5.17;100.00
11041;BME280;5573;49.592;8.662;2023-04-10T00:13:11;100468.69;;;5.14;100.00
11041;BME280;5573;49.592;8.662;2023-04-10T00:15:39;100482.34;;;5.14;100.00
11041;BME280;5573;49.592;8.662;2023-04-10T00:18:07;100462.34;;;5.01;100.00
11041;BME280;5573;49.592;8.662;2023-04-10T00:20:35;100497.22;;;5.25;100.00
11041;BME280;5573;49.592;8.662;2023-04-10T00:23:03;100494.97;;;5.18;100.00
11041;BME280;5573;49.592;8.662;2023-04-10T00:25:32;100500.59;;;5.22;100.00
11041;BME280;5573;49.592;8.662;2023-04-10T00:28:00;100484.00;;;4.97;100.00
11041;BME280;5573;49.592;8.662;2023-04-10T00:30:27;100498.69;;;5.14;100.00
11041;BME280;5573;49.592;8.662;2023-04-10T00:32:55;100495.28;;;5.25;100.00
11041;BME280;5573;49.592;8.662;2023-04-10T00:35:23;100504.09;;;5.22;100.00
11041;BME280;5573;49.592;8.662;2023-04-10T00:37:51;100501.69;;;5.29;100.00
11041;BME280;5573;49.592;8.662;2023-04-10T00:40:20;100508.13;;;5.25;100.00
11041;BME280;5573;49.592;8.662;2023-04-10T00:42:49;100508.56;;;5.27;100.00
11041;BME280;5573;49.592;8.662;2023-04-10T00:45:17;100506.84;;;5.22;100.00
11041;BME280;5573;49.592;8.662;2023-04-10T00:47:45;100502.38;;;5.18;100.00
11041;BME280;5573;49.592;8.662;2023-04-10T00:50:13;100489.78;;;5.04;100.00
11041;BME280;5573;49.592;8.662;2023-04-10T00:52:41;100500.00;;;5.07;100.00
11041;BME280;5573;49.592;8.662;2023-04-10T00:55:09;100497.63;;;5.06;100.00
11041;BME280;5573;49.592;8.662;2023-04-10T00:57:38;100505.63;;;5.11;100.00
11041;BME280;5573;49.592;8.662;2023-04-10T01:00:09;100483.13;;;5.23;100.00
11041;BME280;5573;49.592;8.662;2023-04-10T01:02:37;100496.22;;;5.29;100.00
11041;BME280;5573;49.592;8.662;2023-04-10T01:05:06;100491.00;;;5.16;100.00
11041;BME280;5573;49.592;8.662;2023-04-10T01:07:44;100491.28;;;5.23;100.00
11041;BME280;5573;49.592;8.662;2023-04-10T01:10:19;100488.69;;;5.26;100.00
11041;BME280;5573;49.592;8.662;2023-04-10T01:12:55;100486.69;;;5.15;100.00
11041;BME280;5573;49.592;8.662;2023-04-10T01:15:28;100485.06;;;5.14;100.00
11041;BME280;5573;49.592;8.662;2023-04-10T01:18:01;100487.78;;;5.14;100.00
11041;BME280;5573;49.592;8.662;2023-04-10T01:20:33;100484.53;;;5.20;100.00
11041;BME280;5573;49.592;8.662;2023-04-10T01:23:11;100484.91;;;5.19;100.00
11041;BME280;5573;49.592;8.662;2023-04-10T01:25:47;100488.31;;;5.07;100.00
11041;BME280;5573;49.592;8.662;2023-04-10T01:28:48;100483.03;;;5.02;100.00
11041;BME280;5573;49.592;8.662;2023-04-10T01:31:19;100489.78;;;5.04;100.00
11041;BME280;5573;49.592;8.662;2023-04-10T01:33:50;100504.66;;;5.07;100.00
11041;BME280;5573;49.592;8.662;2023-04-10T01:36:21;100504.38;;;5.00;100.00
11041;BME280;5573;49.592;8.662;2023-04-10T01:38:52;100512.41;;;4.96;100.00
11041;BME280;5573;49.592;8.662;2023-04-10T01:41:22;100506.97;;;4.96;100.00
11041;BME280;5573;49.592;8.662;2023-04-10T01:43:52;100509.72;;;4.87;100.00
11041;BME280;5573;49.592;8.662;2023-04-10T01:46:22;100511.66;;;4.78;100.00
11041;BME280;5573;49.592;8.662;2023-04-10T01:48:52;100504.59;;;4.86;100.00
11041;BME280;5573;49.592;8.662;2023-04-10T01:51:22;100497.66;;;4.88;100.00
11041;BME280;5573;49.592;8.662;2023-04-10T01:53:50;100504.59;;;4.86;100.00
11041;BME280;5573;49.592;8.662;2023-04-10T01:56:23;100503.16;;;4.80;100.00
11041;BME280;5573;49.592;8.662;2023-04-10T01:58:52;100504.44;;;4.82;100.00
11041;BME280;5573;49.592;8.662;2023-04-10T02:01:20;100499.78;;;4.83;100.00
11041;BME280;5573;49.592;8.662;2023-04-10T02:03:56;100492.91;;;4.77;100.00
11041;BME280;5573;49.592;8.662;2023-04-10T02:06:29;100484.06;;;4.80;100.00
11041;BME280;5573;49.592;8.662;2023-04-10T02:09:09;100481.69;;;4.69;100.00
11041;BME280;5573;49.592;8.662;2023-04-10T02:11:40;100481.53;;;4.75;100.00
11041;BME280;5573;49.592;8.662;2023-04-10T02:14:15;100479.16;;;4.64;100.00
11041;BME280;5573;49.592;8.662;2023-04-10T02:16:44;100474.78;;;4.81;100.00
11041;BME280;5573;49.592;8.662;2023-04-10T02:19:15;100472.34;;;4.88;100.00
11041;BME280;5573;49.592;8.662;2023-04-10T02:21:44;100474.13;;;4.84;100.00
11041;BME280;5573;49.592;8.662;2023-04-10T02:24:13;100467.22;;;4.86;100.00
11041;BME280;5573;49.592;8.662;2023-04-10T02:26:45;100465.16;;;4.83;100.00
11041;BME280;5573;49.592;8.662;2023-04-10T02:29:14;100459.06;;;4.78;100.00
11041;BME280;5573;49.592;8.662;2023-04-10T02:31:43;100459.44;;;4.67;100.00
11041;BME280;5573;49.592;8.662;2023-04-10T02:34:12;100457.38;;;4.64;100.00
11041;BME280;5573;49.592;8.662;2023-04-10T02:36:40;100455.28;;;4.61;100.00
11041;BME280;5573;49.592;8.662;2023-04-10T02:39:10;100451.13;;;4.55;100.00
11041;BME280;5573;49.592;8.662;2023-04-10T02:41:46;100439.75;;;4.53;100.00
11041;BME280;5573;49.592;8.662;2023-04-10T02:44:15;100443.38;;;4.75;100.00
11041;BME280;5573;49.592;8.662;2023-04-10T02:46:43;100448.81;;;4.83;100.00
11041;BME280;5573;49.592;8.662;2023-04-10T02:49:12;100444.63;;;4.86;100.00
11041;BME280;5573;49.592;8.662;2023-04-10T02:51:40;100442.16;;;5.02;100.00
11041;BME280;5573;49.592;8.662;2023-04-10T02:54:08;100440.22;;;5.02;100.00
11041;BME280;5573;49.592;8.662;2023-04-10T02:56:37;100442.69;;;5.16;100.00
11041;BME280;5573;49.592;8.662;2023-04-10T02:59:05;100436.31;;;5.33;100.00
11041;BME280;5573;49.592;8.662;2023-04-10T03:01:35;100446.25;;;5.17;100.00
11041;BME280;5573;49.592;8.662;2023-04-10T03:04:05;100444.97;;;5.35;100.00
11041;BME280;5573;49.592;8.662;2023-04-10T03:06:37;100445.19;;;5.30;100.00
11041;BME280;5573;49.592;8.662;2023-04-10T03:09:05;100438.00;;;5.25;100.00
11041;BME280;5573;49.592;8.662;2023-04-10T03:11:33;100439.94;;;5.25;100.00
11041;BME280;5573;49.592;8.662;2023-04-10T03:14:01;100444.56;;;5.24;100.00
11041;BME280;5573;49.592;8.662;2023-04-10T03:16:29;100441.44;;;5.14;100.00
11041;BME280;5573;49.592;8.662;2023-04-10T03:18:59;100402.41;;;4.92;100.00
11041;BME280;5573;49.592;8.662;2023-04-10T03:21:27;100435.22;;;5.04;100.00
11041;BME280;5573;49.592;8.662;2023-04-10T03:23:55;100439.22;;;5.07;100.00
11041;BME280;5573;49.592;8.662;2023-04-10T03:26:24;100433.91;;;5.11;100.00
11041;BME280;5573;49.592;8.662;2023-04-10T03:28:52;100436.69;;;5.02;100.00
11041;BME280;5573;49.592;8.662;2023-04-10T03:31:20;100423.38;;;5.00;100.00
11041;BME280;5573;49.592;8.662;2023-04-10T03:33:52;100423.28;;;4.88;100.00
11041;BME280;5573;49.592;8.662;2023-04-10T03:36:21;100419.38;;;4.98;100.00
11041;BME280;5573;49.592;8.662;2023-04-10T03:38:49;100420.19;;;4.98;100.00
11041;BME280;5573;49.592;8.662;2023-04-10T03:41:18;100407.53;;;4.94;100.00
11041;BME280;5573;49.592;8.662;2023-04-10T03:43:49;100408.50;;;4.89;100.00
11041;BME280;5573;49.592;8.662;2023-04-10T03:46:17;100408.19;;;4.91;100.00
11041;BME280;5573;49.592;8.662;2023-04-10T03:48:46;100409.50;;;4.84;100.00
11041;BME280;5573;49.592;8.662;2023-04-10T03:51:15;100402.59;;;4.87;100.00
11041;BME280;5573;49.592;8.662;2023-04-10T03:53:45;100403.72;;;4.86;100.00
11041;BME280;5573;49.592;8.662;2023-04-10T03:56:15;100392.63;;;4.91;100.00
11041;BME280;5573;49.592;8.662;2023-04-10T03:58:44;100406.09;;;4.96;100.00
11041;BME280;5573;49.592;8.662;2023-04-10T04:01:12;100404.44;;;5.04;100.00
11041;BME280;5573;49.592;8.662;2023-04-10T04:03:55;100403.63;;;5.03;100.00
11041;BME280;5573;49.592;8.662;2023-04-10T04:06:52;100413.69;;;5.12;100.00
11041;BME280;5573;49.592;8.662;2023-04-10T04:09:28;100390.34;;;5.02;100.00
11041;BME280;5573;49.592;8.662;2023-04-10T04:12:15;100410.50;;;5.09;100.00
11041;BME280;5573;49.592;8.662;2023-04-10T04:15:07;100409.00;;;5.21;100.00
11041;BME280;5573;49.592;8.662;2023-04-10T04:17:44;100404.84;;;5.15;100.00
11041;BME280;5573;49.592;8.662;2023-04-10T04:20:31;100410.09;;;5.20;100.00
11041;BME280;5573;49.592;8.662;2023-04-10T04:23:10;100399.88;;;5.17;100.00
11041;BME280;5573;49.592;8.662;2023-04-10T04:25:57;100409.16;;;5.16;100.00
11041;BME280;5573;49.592;8.662;2023-04-10T04:28:44;100404.09;;;5.05;100.00
11041;BME280;5573;49.592;8.662;2023-04-10T04:31:31;100398.31;;;5.07;100.00
11041;BME280;5573;49.592;8.662;2023-04-10T04:34:00;100410.44;;;4.88;100.00
11041;BME280;5573;49.592;8.662;2023-04-10T04:36:30;100410.28;;;4.94;100.00
11041;BME280;5573;49.592;8.662;2023-04-10T04:39:14;100415.53;;;4.99;100.00
11041;BME280;5573;49.592;8.662;2023-04-10T04:41:48;100409.28;;;4.98;100.00
11041;BME280;5573;49.592;8.662;2023-04-10T04:44:44;100408.97;;;4.91;100.00
11041;BME280;5573;49.592;8.662;2023-04-10T04:47:23;100419.72;;;4.96;100.00
11041;BME280;5573;49.592;8.662;2023-04-10T04:50:26;100419.88;;;5.00;100.00
11041;BME280;5573;49.592;8.662;2023-04-10T04:52:54;100419.81;;;5.08;100.00
11041;BME280;5573;49.592;8.662;2023-04-10T04:55:40;100423.66;;;5.07;100.00
11041;BME280;5573;49.592;8.662;2023-04-10T04:58:22;100429.47;;;5.06;100.00
11041;BME280;5573;49.592;8.662;2023-04-10T05:01:10;100419.81;;;5.08;100.00
11041;BME280;5573;49.592;8.662;2023-04-10T05:04:04;100439.00;;;5.21;100.00
11041;BME280;5573;49.592;8.662;2023-04-10T05:06:53;100434.44;;;5.34;100.00
11041;BME280;5573;49.592;8.662;2023-04-10T05:09:49;100427.97;;;5.38;100.00
11041;BME280;5573;49.592;8.662;2023-04-10T05:12:37;100436.94;;;5.39;100.00
11041;BME280;5573;49.592;8.662;2023-04-10T05:15:28;100435.78;;;5.48;100.00
11041;BME280;5573;49.592;8.662;2023-04-10T05:18:11;100436.81;;;5.56;100.00
11041;BME280;5573;49.592;8.662;2023-04-10T05:20:58;100436.50;;;5.58;100.00
11041;BME280;5573;49.592;8.662;2023-04-10T05:23:45;100435.63;;;5.66;100.00
11041;BME280;5573;49.592;8.662;2023-04-10T05:26:28;100430.44;;;5.73;100.00
11041;BME280;5573;49.592;8.662;2023-04-10T05:29:11;100430.97;;;5.87;100.00
11041;BME280;5573;49.592;8.662;2023-04-10T05:32:07;100434.00;;;5.86;100.00
11041;BME280;5573;49.592;8.662;2023-04-10T05:35:03;100439.28;;;6.12;100.00
11041;BME280;5573;49.592;8.662;2023-04-10T05:37:33;100435.69;;;6.20;100.00
11041;BME280;5573;49.592;8.662;2023-04-10T05:40:20;100435.91;;;6.27;100.00
11041;BME280;5573;49.592;8.662;2023-04-10T05:43:16;100423.63;;;6.34;100.00
11041;BME280;5573;49.592;8.662;2023-04-10T05:45:57;100431.22;;;6.61;100.00
11041;BME280;5573;49.592;8.662;2023-04-10T05:48:45;100429.38;;;6.65;100.00
11041;BME280;5573;49.592;8.662;2023-04-10T05:51:35;100434.53;;;6.79;100.00
11041;BME280;5573;49.592;8.662;2023-04-10T05:54:21;100434.19;;;6.93;100.00
11041;BME280;5573;49.592;8.662;2023-04-10T05:57:06;100445.59;;;7.07;100.00
11041;BME280;5573;49.592;8.662;2023-04-10T06:00:01;100447.53;;;7.19;100.00
11041;BME280;5573;49.592;8.662;2023-04-10T06:03:00;100442.16;;;7.23;100.00
11041;BME280;5573;49.592;8.662;2023-04-10T06:05:31;100441.38;;;7.35;100.00
11041;BME280;5573;49.592;8.662;2023-04-10T06:08:03;100431.75;;;7.53;100.00
11041;BME280;5573;49.592;8.662;2023-04-10T06:10:31;100431.94;;;7.72;97.82
11041;BME280;5573;49.592;8.662;2023-04-10T06:12:58;100433.78;;;7.97;95.08
11041;BME280;5573;49.592;8.662;2023-04-10T06:15:27;100432.22;;;8.11;94.72
11041;BME280;5573;49.592;8.662;2023-04-10T06:17:56;100435.56;;;8.33;92.11
11041;BME280;5573;49.592;8.662;2023-04-10T06:20:23;100437.22;;;8.50;87.75
11041;BME280;5573;49.592;8.662;2023-04-10T06:22:52;100437.94;;;8.63;88.32
11041;BME280;5573;49.592;8.662;2023-04-10T06:25:20;100432.28;;;8.71;85.34
11041;BME280;5573;49.592;8.662;2023-04-10T06:27:48;100430.50;;;8.95;79.38
11041;BME280;5573;49.592;8.662;2023-04-10T06:30:16;100429.22;;;9.24;80.43
11041;BME280;5573;49.592;8.662;2023-04-10T06:32:44;100425.38;;;9.45;69.51
11041;BME280;5573;49.592;8.662;2023-04-10T06:35:12;100423.00;;;9.82;69.59
11041;BME280;5573;49.592;8.662;2023-04-10T06:37:41;100422.56;;;10.00;68.63
11041;BME280;5573;49.592;8.662;2023-04-10T06:40:12;100420.50;;;10.16;68.47
11041;BME280;5573;49.592;8.662;2023-04-10T06:42:40;100416.06;;;10.50;63.46
11041;BME280;5573;49.592;8.662;2023-04-10T06:45:22;100420.28;;;10.67;61.89
11041;BME280;5573;49.592;8.662;2023-04-10T06:47:50;100425.63;;;10.80;62.44
11041;BME280;5573;49.592;8.662;2023-04-10T06:50:17;100430.97;;;10.72;60.17
11041;BME280;5573;49.592;8.662;2023-04-10T06:52:46;100425.03;;;10.93;60.09
11041;BME280;5573;49.592;8.662;2023-04-10T06:55:16;100418.00;;;10.96;58.54
11041;BME280;5573;49.592;8.662;2023-04-10T06:57:43;100424.16;;;11.12;58.96
11041;BME280;5573;49.592;8.662;2023-04-10T07:00:12;100417.50;;;11.13;58.31
11041;BME280;5573;49.592;8.662;2023-04-10T07:02:40;100415.31;;;11.26;56.72
11041;BME280;5573;49.592;8.662;2023-04-10T07:05:08;100421.25;;;11.58;56.27
11041;BME280;5573;49.592;8.662;2023-04-10T07:07:36;100423.84;;;11.74;56.39
11041;BME280;5573;49.592;8.662;2023-04-10T07:10:04;100423.91;;;11.82;56.04
11041;BME280;5573;49.592;8.662;2023-04-10T07:12:34;100416.16;;;11.91;54.34
11041;BME280;5573;49.592;8.662;2023-04-10T07:15:02;100421.22;;;12.19;54.02
11041;BME280;5573;49.592;8.662;2023-04-10T07:17:29;100429.00;;;12.10;54.32
11041;BME280;5573;49.592;8.662;2023-04-10T07:19:57;100416.66;;;12.34;53.76
11041;BME280;5573;49.592;8.662;2023-04-10T07:22:25;100426.28;;;12.51;51.46
11041;BME280;5573;49.592;8.662;2023-04-10T07:24:53;100415.84;;;12.74;51.36
11041;BME280;5573;49.592;8.662;2023-04-10T07:27:21;100414.69;;;12.79;52.39
11041;BME280;5573;49.592;8.662;2023-04-10T07:29:53;100415.19;;;12.92;52.83
11041;BME280;5573;49.592;8.662;2023-04-10T07:32:21;100420.78;;;12.99;52.05
11041;BME280;5573;49.592;8.662;2023-04-10T07:34:49;100415.00;;;13.18;51.75
11041;BME280;5573;49.592;8.662;2023-04-10T07:37:17;100413.53;;;13.32;51.24
11041;BME280;5573;49.592;8.662;2023-04-10T07:39:44;100401.59;;;13.20;49.28
11041;BME280;5573;49.592;8.662;2023-04-10T07:42:12;100401.31;;;13.33;49.03
11041;BME280;5573;49.592;8.662;2023-04-10T07:44:40;100397.25;;;13.23;48.89
11041;BME280;5573;49.592;8.662;2023-04-10T07:47:09;100403.16;;;13.18;48.63
11041;BME280;5573;49.592;8.662;2023-04-10T07:49:37;100395.06;;;13.43;49.41
11041;BME280;5573;49.592;8.662;2023-04-10T07:52:05;100386.34;;;13.45;48.42
11041;BME280;5573;49.592;8.662;2023-04-10T07:54:33;100390.25;;;13.33;48.78
11041;BME280;5573;49.592;8.662;2023-04-10T07:57:01;100389.97;;;13.59;48.72
11041;BME280;5573;49.592;8.662;2023-04-10T07:59:28;100383.63;;;13.48;48.56
11041;BME280;5573;49.592;8.662;2023-04-10T08:01:56;100376.59;;;13.69;47.87
11041;BME280;5573;49.592;8.662;2023-04-10T08:04:25;100383.69;;;13.70;47.19
11041;BME280;5573;49.592;8.662;2023-04-10T08:06:53;100377.09;;;13.96;46.63
11041;BME280;5573;49.592;8.662;2023-04-10T08:09:21;100387.28;;;13.74;47.51
11041;BME280;5573;49.592;8.662;2023-04-10T08:11:49;100379.41;;;13.87;47.79
11041;BME280;5573;49.592;8.662;2023-04-10T08:14:16;100392.13;;;14.06;47.26
11041;BME280;5573;49.592;8.662;2023-04-10T08:16:44;100382.31;;;14.40;46.30
11041;BME280;5573;49.592;8.662;2023-04-10T08:19:12;100380.28;;;14.16;47.45
11041;BME280;5573;49.592;8.662;2023-04-10T08:21:41;100373.66;;;14.74;47.17
11041;BME280;5573;49.592;8.662;2023-04-10T08:24:08;100396.97;;;15.16;44.01
11041;BME280;5573;49.592;8.662;2023-04-10T08:26:36;100383.06;;;15.31;44.51
11041;BME280;5573;49.592;8.662;2023-04-10T08:29:04;100389.44;;;15.13;45.42
11041;BME280;5573;49.592;8.662;2023-04-10T08:31:32;100388.28;;;14.93;43.81
11041;BME280;5573;49.592;8.662;2023-04-10T08:34:00;100386.69;;;14.88;43.62
11041;BME280;5573;49.592;8.662;2023-04-10T08:36:29;100369.28;;;15.02;43.40
11041;BME280;5573;49.592;8.662;2023-04-10T08:38:59;100369.63;;;15.29;45.07
11041;BME280;5573;49.592;8.662;2023-04-10T08:41:26;100375.13;;;15.40;42.80
11041;BME280;5573;49.592;8.662;2023-04-10T08:43:55;100366.47;;;15.16;43.64
11041;BME280;5573;49.592;8.662;2023-04-10T08:46:24;100362.50;;;15.21;42.58
11041;BME280;5573;49.592;8.662;2023-04-10T08:48:54;100356.06;;;15.56;44.69
11041;BME280;5573;49.592;8.662;2023-04-10T08:51:27;100360.06;;;15.44;42.17
11041;BME280;5573;49.592;8.662;2023-04-10T08:54:00;100337.75;;;15.77;44.08
11041;BME280;5573;49.592;8.662;2023-04-10T08:56:32;100347.28;;;15.76;41.78
11041;BME280;5573;49.592;8.662;2023-04-10T08:59:02;100298.66;;;15.50;41.49
11041;BME280;5573;49.592;8.662;2023-04-10T09:01:29;100338.50;;;15.92;39.52
11041;BME280;5573;49.592;8.662;2023-04-10T09:03:57;100337.75;;;15.80;40.91
11041;BME280;5573;49.592;8.662;2023-04-10T09:06:26;100350.44;;;15.78;42.59
11041;BME280;5573;49.592;8.662;2023-04-10T09:08:54;100337.34;;;15.85;39.84
11041;BME280;5573;49.592;8.662;2023-04-10T09:11:23;100336.25;;;16.28;41.01
11041;BME280;5573;49.592;8.662;2023-04-10T09:13:50;100332.84;;;16.55;39.00
11041;BME280;5573;49.592;8.662;2023-04-10T09:16:27;100326.25;;;16.38;37.08
11041;BME280;5573;49.592;8.662;2023-04-10T09:18:56;100317.53;;;16.39;40.04
11041;BME280;5573;49.592;8.662;2023-04-10T09:21:25;100311.09;;;16.50;37.36
11041;BME280;5573;49.592;8.662;2023-04-10T09:23:59;100308.88;;;16.75;39.00
11041;BME280;5573;49.592;8.662;2023-04-10T09:26:29;100303.41;;;16.64;40.39
11041;BME280;5573;49.592;8.662;2023-04-10T09:29:00;100296.06;;;16.43;42.13
11041;BME280;5573;49.592;8.662;2023-04-10T09:31:30;100300.28;;;16.59;39.53
11041;BME280;5573;49.592;8.662;2023-04-10T09:34:09;100291.84;;;16.70;38.64
11041;BME280;5573;49.592;8.662;2023-04-10T09:36:37;100294.09;;;16.89;38.76
11041;BME280;5573;49.592;8.662;2023-04-10T09:39:07;100291.41;;;17.47;38.74
11041;BME280;5573;49.592;8.662;2023-04-10T09:41:46;100288.00;;;17.36;37.14
11041;BME280;5573;49.592;8.662;2023-04-10T09:44:16;100292.16;;;17.51;39.46
11041;BME280;5573;49.592;8.662;2023-04-10T09:46:45;100297.91;;;17.67;35.41
11041;BME280;5573;49.592;8.662;2023-04-10T09:49:15;100286.44;;;17.93;36.44
11041;BME280;5573;49.592;8.662;2023-04-10T09:51:43;100286.59;;;17.82;34.85
11041;BME280;5573;49.592;8.662;2023-04-10T09:54:10;100272.59;;;17.58;34.93
11041;BME280;5573;49.592;8.662;2023-04-10T09:56:38;100264.75;;;17.50;37.34
11041;BME280;5573;49.592;8.662;2023-04-10T09:59:07;100257.09;;;17.88;34.26
11041;BME280;5573;49.592;8.662;2023-04-10T10:01:36;100258.41;;;18.07;36.67
11041;BME280;5573;49.592;8.662;2023-04-10T10:04:06;100211.03;;;17.56;36.21
11041;BME280;5573;49.592;8.662;2023-04-10T10:06:37;100250.84;;;18.07;37.71
11041;BME280;5573;49.592;8.662;2023-04-10T10:09:04;100245.56;;;18.13;36.42
11041;BME280;5573;49.592;8.662;2023-04-10T10:11:33;100240.53;;;18.04;35.35
11041;BME280;5573;49.592;8.662;2023-04-10T10:14:03;100231.94;;;17.95;35.72
11041;BME280;5573;49.592;8.662;2023-04-10T10:16:38;100241.72;;;17.76;36.46
11041;BME280;5573;49.592;8.662;2023-04-10T10:19:09;100232.94;;;17.54;35.34
11041;BME280;5573;49.592;8.662;2023-04-10T10:21:38;100205.41;;;17.33;36.31
11041;BME280;5573;49.592;8.662;2023-04-10T10:24:09;100232.25;;;18.01;37.19
11041;BME280;5573;49.592;8.662;2023-04-10T10:26:38;100231.44;;;18.00;34.03
11041;BME280;5573;49.592;8.662;2023-04-10T10:29:08;100233.63;;;18.13;34.95
11041;BME280;5573;49.592;8.662;2023-04-10T10:31:37;100237.16;;;18.17;36.85
11041;BME280;5573;49.592;8.662;2023-04-10T10:34:05;100229.09;;;17.99;35.33
11041;BME280;5573;49.592;8.662;2023-04-10T10:36:35;100231.22;;;18.15;34.08
11041;BME280;5573;49.592;8.662;2023-04-10T10:39:26;100219.09;;;18.48;34.85
11041;BME280;5573;49.592;8.662;2023-04-10T10:42:01;100217.22;;;18.85;32.38
11041;BME280;5573;49.592;8.662;2023-04-10T10:44:40;100213.72;;;18.38;32.18
11041;BME280;5573;49.592;8.662;2023-04-10T10:47:15;100210.97;;;18.58;33.75
11041;BME280;5573;49.592;8.662;2023-04-10T10:49:51;100220.22;;;18.95;34.20
11041;BME280;5573;49.592;8.662;2023-04-10T10:52:40;100205.94;;;19.13;32.66
11041;BME280;5573;49.592;8.662;2023-04-10T10:55:33;100173.06;;;18.84;34.62
11041;BME280;5573;49.592;8.662;2023-04-10T10:58:05;100194.84;;;19.09;34.85
11041;BME280;5573;49.592;8.662;2023-04-10T11:01:04;100195.25;;;19.27;33.97
11041;BME280;5573;49.592;8.662;2023-04-10T11:03:37;100185.41;;;19.03;33.84
11041;BME280;5573;49.592;8.662;2023-04-10T11:06:06;100173.31;;;19.62;35.45
11041;BME280;5573;49.592;8.662;2023-04-10T11:08:36;100177.47;;;19.21;31.61
11041;BME280;5573;49.592;8.662;2023-04-10T11:11:09;100188.09;;;19.26;32.03
11041;BME280;5573;49.592;8.662;2023-04-10T11:13:39;100183.09;;;18.78;32.94
11041;BME280;5573;49.592;8.662;2023-04-10T11:16:08;100179.78;;;18.86;33.05
11041;BME280;5573;49.592;8.662;2023-04-10T11:19:03;100182.66;;;18.83;33.40
11041;BME280;5573;49.592;8.662;2023-04-10T11:21:58;100186.28;;;19.00;32.50
11041;BME280;5573;49.592;8.662;2023-04-10T11:24:29;100170.28;;;19.20;32.33
11041;BME280;5573;49.592;8.662;2023-04-10T11:27:40;100158.53;;;19.13;32.85
11041;BME280;5573;49.592;8.662;2023-04-10T11:30:30;100155.53;;;19.03;32.71
11041;BME280;5573;49.592;8.662;2023-04-10T11:32:59;100148.41;;;18.82;32.95
11041;BME280;5573;49.592;8.662;2023-04-10T11:35:29;100135.47;;;18.72;32.95
11041;BME280;5573;49.592;8.662;2023-04-10T11:38:11;100123.97;;;18.90;32.41
11041;BME280;5573;49.592;8.662;2023-04-10T11:41:00;100135.03;;;19.30;32.31
11041;BME280;5573;49.592;8.662;2023-04-10T11:43:29;100124.13;;;18.83;32.36
11041;BME280;5573;49.592;8.662;2023-04-10T11:45:59;100078.03;;;18.78;32.24
11041;BME280;5573;49.592;8.662;2023-04-10T11:48:27;100114.03;;;19.25;32.29
11041;BME280;5573;49.592;8.662;2023-04-10T11:50:57;100111.69;;;19.73;33.81
11041;BME280;5573;49.592;8.662;2023-04-10T11:53:27;100110.88;;;20.05;33.10
11041;BME280;5573;49.592;8.662;2023-04-10T11:55:55;100119.50;;;20.11;33.13
11041;BME280;5573;49.592;8.662;2023-04-10T11:58:24;100114.16;;;20.17;32.82
11041;BME280;5573;49.592;8.662;2023-04-10T12:00:59;100100.53;;;19.73;32.33
11041;BME280;5573;49.592;8.662;2023-04-10T12:03:34;100095.84;;;19.70;33.62
11041;BME280;5573;49.592;8.662;2023-04-10T12:06:06;100096.94;;;19.89;33.67
11041;BME280;5573;49.592;8.662;2023-04-10T12:08:35;100086.47;;;20.22;31.89
11041;BME280;5573;49.592;8.662;2023-04-10T12:11:03;100086.53;;;20.06;30.88
11041;BME280;5573;49.592;8.662;2023-04-10T12:13:31;100097.00;;;20.31;31.69
11041;BME280;5573;49.592;8.662;2023-04-10T12:16:00;100087.34;;;20.19;30.74
11041;BME280;5573;49.592;8.662;2023-04-10T12:18:29;100068.44;;;19.32;32.92
11041;BME280;5573;49.592;8.662;2023-04-10T12:20:57;100072.72;;;19.86;30.93
11041;BME280;5573;49.592;8.662;2023-04-10T12:23:28;100075.47;;;20.44;30.54
11041;BME280;5573;49.592;8.662;2023-04-10T12:26:10;100075.69;;;20.37;32.73
11041;BME280;5573;49.592;8.662;2023-04-10T12:28:40;100057.50;;;20.45;32.04
11041;BME280;5573;49.592;8.662;2023-04-10T12:31:08;100063.84;;;20.33;30.73
11041;BME280;5573;49.592;8.662;2023-04-10T12:33:36;100063.47;;;20.18;31.58
11041;BME280;5573;49.592;8.662;2023-04-10T12:36:04;100060.84;;;20.11;30.49
11041;BME280;5573;49.592;8.662;2023-04-10T12:38:38;100057.13;;;20.60;32.06
11041;BME280;5573;49.592;8.662;2023-04-10T12:41:07;100049.63;;;20.82;29.09
11041;BME280;5573;49.592;8.662;2023-04-10T12:43:36;100036.56;;;20.79;29.12
11041;BME280;5573;49.592;8.662;2023-04-10T12:46:05;100044.94;;;20.66;30.28
11041;BME280;5573;49.592;8.662;2023-04-10T12:48:33;100047.31;;;20.94;30.04
11041;BME280;5573;49.592;8.662;2023-04-10T12:51:01;100045.16;;;20.72;31.88
11041;BME280;5573;49.592;8.662;2023-04-10T12:53:29;100040.19;;;20.50;31.62
11041;BME280;5573;49.592;8.662;2023-04-10T12:56:00;100036.34;;;20.02;32.25
11041;BME280;5573;49.592;8.662;2023-04-10T12:58:28;100039.84;;;20.06;32.89
11041;BME280;5573;49.592;8.662;2023-04-10T13:01:01;100025.56;;;20.59;33.39
11041;BME280;5573;49.592;8.662;2023-04-10T13:03:29;100028.38;;;20.30;32.93
11041;BME280;5573;49.592;8.662;2023-04-10T13:05:57;100015.56;;;20.33;30.89
11041;BME280;5573;49.592;8.662;2023-04-10T13:08:25;100020.28;;;20.48;30.33
11041;BME280;5573;49.592;8.662;2023-04-10T13:10:53;100015.44;;;20.36;29.18
11041;BME280;5573;49.592;8.662;2023-04-10T13:13:24;100023.06;;;20.06;29.62
11041;BME280;5573;49.592;8.662;2023-04-10T13:15:52;100024.38;;;19.89;28.30
11041;BME280;5573;49.592;8.662;2023-04-10T13:18:21;100011.22;;;20.02;29.41
11041;BME280;5573;49.592;8.662;2023-04-10T13:20:49;100007.53;;;20.47;28.60
11041;BME280;5573;49.592;8.662;2023-04-10T13:23:17;100006.41;;;20.45;31.39
11041;BME280;5573;49.592;8.662;2023-04-10T13:25:44;99989.38;;;20.81;28.02
11041;BME280;5573;49.592;8.662;2023-04-10T13:28:12;99993.97;;;20.75;28.04